Hardin, MT

8:56 PM MST on December 28, 2014 (GMT -0700)
RAWS LITTLE BIGHORN MT US | Change Station
CLOSE
Current Station
Personal Weather Station
Location: Crow Agency, MT
Elevation: 3196 ft
Nearby Weather Stations
Active Advisory: Winter Weather Advisory

Elev 3196 ft 45.57 °N, 107.44 °W | Updated 57 minutes ago

Overcast
Overcast
17 °F
Feels Like 5 °F
N
11
Wind Variable Wind from North
Gusts 20.0 mph

Today
High -- | Low -- °F
--% Chance of Precip.
Yesterday
High -- | Low -- °F
Precip. -- in
7:50 AM 4:33 PM
First Quarter, 54% visible
Pressure 30.39 in
Visibility 1.5 miles
Clouds Few 1000 ft
Overcast 2700 ft
Windchill 5 °F
Dew Point 14 °F
Humidity 87%
Rainfall 0.00 in
Snow Depth Not available.
UV 0 out of 12
Pollen .10 out of 12
Air Quality Not available.
Flu Activity Not available.
METAR KBIL 290353Z 01009KT 1 1/2SM -SN BR FEW010 OVC027 M09/M11 A3024 RMK AO2 SLP290 P0000 T10941111 $

More Conditions Fewer Conditions

Pressure 30.39 in
Visibility 1.5 miles
Clouds Few 1000 ft
Overcast 2700 ft
Windchill 5 °F
Dew Point 14 °F
Humidity 87%
Rainfall 0.00 in
Snow Depth Not available.
UV 0 out of 12
Pollen .10 out of 12
Air Quality Not available.
Flu Activity Not available.
METAR KBIL 290353Z 01009KT 1 1/2SM -SN BR FEW010 OVC027 M09/M11 A3024 RMK AO2 SLP290 P0000 T10941111 $

More Conditions Fewer Conditions

10-Day Weather Forecast

Almanac

Astronomy

Dec. 28, 2014 Rise Set
Actual Time
Civil Twilight
Nautical Twilight
Astronomical Twilight
Moon
Length of Visible Light
Length of Day
Tomorrow will be .
, % of the Moon is Illuminated

Today's Extremes

State Highs State Lows

Community

WunderPhotos

Upload Photos

1,781,520 photos uploaded!

WunderBlogs® & News

Nearby

Air Quality

  Air Quality AQ Index Pollutant
Not available.

Snow Depth

Station Depth Elevation

Earthquake Activity

City Distance Mag. Time & Date
Minimum magnitude displayed is 2.5.

Coastal Water Temperatures

Place Temperature

Nearby Weather Stations